• Join FlightAware (Why Join?)
  • Login
  • US Flag 
10:01AM EDT


 

Airport Tracker/Info


-or-


 

Live Flight TrackerFlight Track Log ✈ GJS3618 ✈ 28-Jun-2013 ✈ KORD - KBZN

Flight Track Log - Related Links

Times and Time Zones

All times are in EDT time to prevent confusion due to time zone crossing. See the GJS3618 flight status page for this flight to view local times or setup timezone preferences in your user account.

Time Position Orientation Groundspeed Altitude Reporting Facility
EDT Latitude Longitude Course Direction KTS MPH feet Rate Location/Type
11:03PM 42.0000 -87.9500 255° West 168 193 1,900  Level Chicago TRACON
11:04PM 41.9833 -88.0333 255° West 218 251 3,800 1,800 Climbing Chicago TRACON
11:05PM 41.9667 -88.1167 255° West 232 267 5,500 1,800 Climbing Chicago TRACON
11:05PM 41.9669 -88.1578 271° West 231 266 6,400 2,160 Climbing Chicago Center
11:06PM 41.9525 -88.2617 259° West 276 318 8,800 2,280 Climbing Chicago Center
11:08PM 41.9408 -88.3678 262° West 290 334 11,100 1,680 Climbing Chicago Center
11:09PM 41.9519 -88.4844 277° West 320 368 12,300 1,500 Climbing Chicago Center
11:10PM 41.9633 -88.6086 277° West 335 386 14,200 1,800 Climbing Chicago Center
11:11PM 41.9783 -88.7369 279° West 349 402 16,000 1,920 Climbing Chicago Center
11:12PM 42.0000 -88.8969 280° West 364 419 18,200 1,860 Climbing Chicago Center
11:13PM 42.0200 -89.0306 281° West 367 422 19,900 1,500 Climbing Chicago Center
11:14PM 42.0419 -89.1675 282° West 377 434 21,300 1,320 Climbing Chicago Center
11:15PM 42.0642 -89.3078 282° West 390 449 22,600 1,260 Climbing Chicago Center
11:16PM 42.0875 -89.4606 282° West 387 445 23,900 1,140 Climbing Chicago Center
11:17PM 42.1111 -89.6103 282° West 402 463 25,000 1,020 Climbing Chicago Center
11:18PM 42.1364 -89.7608 283° West 409 471 26,000 1,080 Climbing Chicago Center
11:19PM 42.1631 -89.9142 283° West 409 471 27,300 1,020 Climbing Chicago Center
11:20PM 42.1903 -90.0644 284° West 413 475 28,200 840 Climbing Chicago Center
11:21PM 42.2164 -90.2161 283° West 419 482 29,100 780 Climbing Chicago Center
11:22PM 42.2450 -90.3703 284° West 425 489 29,800 780 Climbing Chicago Center
11:23PM 42.2694 -90.5253 282° West 426 490 30,700 1,080 Climbing Chicago Center
11:24PM 42.3008 -90.7047 283° West 414 476 32,100 1,260 Climbing Chicago Center
11:25PM 42.3286 -90.8494 285° West 402 463 33,300 1,020 Climbing Chicago Center
11:26PM 42.3650 -90.9828 290° West 387 445 34,300 780 Climbing Chicago Center
11:27PM 42.4072 -91.1128 294° West 381 438 34,900 480 Climbing Chicago Center
11:28PM 42.4492 -91.2422 294° West 380 437 35,400 480 Climbing Chicago Center
11:29PM 42.4908 -91.3728 293° West 380 437 35,900 240 Climbing Chicago Center
11:30PM 42.5328 -91.5050 293° West 382 440 36,000  Climbing Chicago Center
11:31PM 42.5750 -91.6378 293° West 383 441 36,000  Level Chicago Center
11:32PM 42.6172 -91.7719 293° West 384 442 36,000  Level Chicago Center
11:33PM 42.6675 -91.9331 293° West 384 442 36,000  Level Chicago Center
11:34PM 42.7094 -92.0675 293° West 387 445 36,000  Level Chicago Center
11:35PM 42.7514 -92.2019 293° West 390 449 36,000  Level Chicago Center
11:36PM 42.7928 -92.3369 293° West 390 449 36,000  Level Chicago Center
11:37PM 42.8336 -92.4719 292° West 389 448 36,000  Level Chicago Center
11:38PM 42.8750 -92.6089 292° West 392 451 36,000  Level Chicago Center
11:39PM 42.9097 -92.7214 293° West 399 459 36,000  Level Minneapolis Center
11:40PM 42.9525 -92.8606 293° West 400 460 36,000  Level Minneapolis Center
11:41PM 42.9947 -93.0003 292° West 401 461 36,000  Level Minneapolis Center
11:42PM 43.0367 -93.1408 292° West 403 464 36,000  Level Minneapolis Center
11:43PM 43.0781 -93.2808 292° West 402 463 36,000  Level Minneapolis Center
11:44PM 43.1161 -93.4581 286° West 407 468 36,000  Level Minneapolis Center
11:45PM 43.1422 -93.6072 284° West 408 470 36,000  Level Minneapolis Center
11:46PM 43.1683 -93.7542 284° West 402 463 36,000  Level Minneapolis Center
11:47PM 43.1931 -93.9006 283° West 400 460 36,000  Level Minneapolis Center
11:48PM 43.2186 -94.0456 284° West 396 456 36,000  Level Minneapolis Center
11:49PM 43.2433 -94.1903 283° West 393 452 36,000 -300 Level Minneapolis Center
11:50PM 43.2703 -94.3536 283° West 395 455 35,400 -540 Descending Minneapolis Center
11:51PM 43.2944 -94.5003 283° West 394 453 34,800 -600 Descending Minneapolis Center
11:52PM 43.3244 -94.6781 283° West 398 458 34,100 -420 Descending Minneapolis Center
11:53PM 43.3483 -94.8261 283° West 398 458 34,000 -60 Descending Minneapolis Center
11:54PM 43.3731 -94.9756 283° West 400 460 34,000  Level Minneapolis Center
11:55PM 43.3972 -95.1231 283° West 398 458 34,000  Level Minneapolis Center
11:57PM 43.4258 -95.3025 282° West 400 460 34,000  Level Minneapolis Center
11:58PM 43.4489 -95.4528 282° West 401 461 34,000  Level Minneapolis Center
11:59PM 43.4733 -95.6039 283° West 403 464 34,000  Level Minneapolis Center
12:00AM 43.4961 -95.7539 282° West 402 463 34,000  Level Minneapolis Center
12:01AM 43.5189 -95.9044 282° West 402 463 34,000  Level Minneapolis Center
12:02AM 43.5419 -96.0561 282° West 403 464 34,000  Level Minneapolis Center
12:03AM 43.5650 -96.2081 282° West 402 463 34,000  Level Minneapolis Center
12:04AM 43.5881 -96.3614 282° West 405 466 34,000  Level Minneapolis Center
12:05AM 43.6108 -96.5153 282° West 407 468 34,000  Level Minneapolis Center
12:06AM 43.6375 -96.6981 281° West 405 466 34,000  Level Minneapolis Center
12:07AM 43.6694 -96.8453 287° West 401 461 34,000  Level Minneapolis Center
12:08AM 43.7147 -96.9836 294° West 392 451 34,000  Level Minneapolis Center
12:09AM 43.7667 -97.1522 293° West 395 455 34,000  Level Minneapolis Center
12:10AM 43.8108 -97.2900 294° West 392 451 34,000  Level Minneapolis Center
12:11AM 43.8539 -97.4300 293° West 394 453 34,000  Level Minneapolis Center
12:12AM 43.8969 -97.5697 293° West 394 453 34,000  Level Minneapolis Center
12:13AM 43.9319 -97.6817 294° West 395 455 34,000  Level Minneapolis Center
12:14AM 43.9833 -97.8492 293° West 393 452 34,000  Level Minneapolis Center
12:15AM 44.0258 -97.9872 293° West 389 448 34,000  Level Minneapolis Center
12:16AM 44.0672 -98.1275 292° West 391 450 34,000  Level Minneapolis Center
12:17AM 44.1097 -98.2664 293° West 390 449 34,000  Level Minneapolis Center
12:18AM 44.1525 -98.4064 293° West 393 452 34,000  Level Minneapolis Center
12:19AM 44.1942 -98.5469 293° West 393 452 34,000  Level Minneapolis Center
12:20AM 44.2433 -98.7119 293° West 391 450 34,000  Level Minneapolis Center
12:21AM 44.2850 -98.8508 293° West 389 448 34,000  Level Minneapolis Center
12:22AM 44.3342 -99.0183 292° West 387 445 34,000  Level Minneapolis Center
12:23AM 44.3750 -99.1586 292° West 388 447 34,000  Level Minneapolis Center
12:24AM 44.4153 -99.3014 292° West 391 450 34,000  Level Minneapolis Center
12:25AM 44.4561 -99.4419 292° West 391 450 34,000  Level Minneapolis Center
12:26AM 44.4958 -99.5856 291° West 392 451 34,000  Level Minneapolis Center
12:27AM 44.5358 -99.7281 292° West 393 452 34,000  Level Minneapolis Center
12:28AM 44.5767 -99.8722 292° West 394 453 34,000  Level Minneapolis Center
12:29AM 44.6175 -100.0183 291° West 398 458 34,000  Level Minneapolis Center
12:31AM 44.6583 -100.1650 291° West 400 460 34,000  Level Minneapolis Center
12:32AM 44.6997 -100.3125 292° West 402 463 34,000  Level Minneapolis Center
12:33AM 44.7394 -100.4597 291° West 401 461 34,000  Level Minneapolis Center
12:34AM 44.7811 -100.6072 292° West 403 464 34,000  Level Minneapolis Center
12:35AM 44.8208 -100.7564 291° West 404 465 34,000  Level Minneapolis Center
12:36AM 44.8622 -100.9050 291° West 406 467 34,000  Level Minneapolis Center
12:37AM 44.9042 -101.0536 292° West 407 468 34,000  Level Minneapolis Center
12:38AM 44.9442 -101.2033 291° West 408 470 34,000  Level Minneapolis Center
12:39AM 44.9836 -101.3528 291° West 406 467 34,000  Level Minneapolis Center
12:40AM 45.0239 -101.5006 291° West 404 465 34,000  Level Minneapolis Center
12:41AM 45.0636 -101.6522 290° West 409 471 34,000  Level Minneapolis Center
12:42AM 45.0931 -101.8061 285° West 406 467 34,000  Level Minneapolis Center
12:43AM 45.1142 -101.9661 281° West 411 473 34,000  Level Minneapolis Center
12:44AM 45.1353 -102.1264 281° West 413 475 34,000  Level Minneapolis Center
12:45AM 45.1622 -102.3194 281° West 416 479 34,000  Level Minneapolis Center
12:46AM 45.1831 -102.4803 280° West 416 479 34,000  Level Minneapolis Center
12:47AM 45.2028 -102.6419 280° West 416 479 34,000  Level Minneapolis Center
12:48AM 45.2253 -102.8047 281° West 420 483 34,000  Level Minneapolis Center
12:49AM 45.2450 -102.9683 280° West 421 484 34,000  Level Minneapolis Center
12:50AM 45.2661 -103.1336 280° West 424 488 34,000  Level Minneapolis Center
12:51AM 45.2786 -103.2431 279° West 425 489 34,000  Level Salt Lake Center
12:52AM 45.2992 -103.4089 280° West 427 491 34,000  Level Salt Lake Center
12:53AM 45.3192 -103.5714 280° West 423 487 34,000  Level Salt Lake Center
12:54AM 45.3381 -103.7378 279° West 424 488 34,000  Level Salt Lake Center
12:55AM 45.3583 -103.9058 280° West 427 491 34,000  Level Salt Lake Center
12:56AM 45.3822 -104.1083 280° West 432 497 34,000  Level Salt Lake Center
12:57AM 45.4014 -104.2789 279° West 434 499 34,000  Level Salt Lake Center
12:58AM 45.4200 -104.4486 279° West 435 501 34,000  Level Salt Lake Center
12:59AM 45.4383 -104.6122 279° West 429 494 34,000  Level Salt Lake Center
01:00AM 45.4561 -104.7756 279° West 423 487 34,000  Level Salt Lake Center
01:01AM 45.4728 -104.9347 279° West 414 476 34,000  Level Salt Lake Center
01:02AM 45.4903 -105.0931 279° West 409 471 34,000  Level Salt Lake Center
01:03AM 45.5061 -105.2508 278° West 406 467 34,000  Level Salt Lake Center
01:04AM 45.5231 -105.4094 279° West 405 466 34,000  Level Salt Lake Center
01:05AM 45.5400 -105.5686 279° West 405 466 34,000  Level Salt Lake Center
01:06AM 45.5597 -105.7633 278° West 411 473 34,000  Level Salt Lake Center
01:07AM 45.5756 -105.9264 278° West 414 476 34,000  Level Salt Lake Center
01:08AM 45.5908 -106.0889 278° West 414 476 34,000  Level Salt Lake Center
01:09AM 45.6069 -106.2536 278° West 417 480 34,000  Level Salt Lake Center
01:10AM 45.6239 -106.4208 278° West 419 482 34,000  Level Salt Lake Center
01:11AM 45.6378 -106.5861 277° West 422 486 34,000  Level Salt Lake Center
01:12AM 45.6508 -106.7503 277° West 420 483 34,000  Level Salt Lake Center
01:13AM 45.6647 -106.9167 277° West 420 483 34,000  Level Salt Lake Center
01:14AM 45.6825 -107.0889 278° West 427 491 34,000  Level Salt Lake Center
01:15AM 45.7003 -107.2761 278° West 429 494 34,000  Level Salt Lake Center
01:16AM 45.7153 -107.4575 277° West 428 493 34,000  Level Salt Lake Center
01:17AM 45.7297 -107.6244 277° West 434 499 34,000  Level Salt Lake Center
01:18AM 45.7433 -107.7911 277° West 429 494 34,000  Level Salt Lake Center
01:19AM 45.7581 -107.9731 277° West 429 494 34,000  Level Salt Lake Center
01:20AM 45.7714 -108.1411 277° West 431 496 34,000  Level Salt Lake Center
01:21AM 45.7842 -108.3072 276° West 423 487 34,000  Level Salt Lake Center
01:22AM 45.7956 -108.4706 276° West 425 489 34,000  Level Salt Lake Center
01:23AM 45.8075 -108.6583 275° West 447 514 34,000 -780 Level Salt Lake Center
01:24AM 45.8081 -108.8406 270° West 431 496 32,500 -1,740 Descending Salt Lake Center
01:25AM 45.8078 -109.0133 270° West 432 497 30,500 -1,980 Descending Salt Lake Center
01:26AM 45.8069 -109.1844 270° West 438 504 28,500 -2,040 Descending Salt Lake Center
01:27AM 45.8058 -109.3692 270° West 434 499 26,400 -2,040 Descending Salt Lake Center
01:28AM 45.8047 -109.5347 270° West 424 488 24,400 -1,980 Descending Salt Lake Center
01:29AM 45.8033 -109.6956 269° West 408 470 22,400 -1,980 Descending Salt Lake Center
01:30AM 45.8008 -109.8508 269° West 398 458 20,400 -1,920 Descending Salt Lake Center
01:31AM 45.8189 -109.9950 280° West 388 447 18,500 -1,920 Descending Salt Lake Center
01:32AM 45.8450 -110.1597 283° West 383 441 16,600 -1,920 Descending Salt Lake Center
01:33AM 45.8664 -110.2964 283° West 377 434 14,600 -1,320 Descending Salt Lake Center
01:34AM 45.8867 -110.4322 282° West 372 428 14,000 -300 Descending Salt Lake Center
01:35AM 45.9117 -110.5933 283° West 371 427 14,000 -420 Level Salt Lake Center
01:36AM 45.9328 -110.7203 283° West 366 421 13,200 -900 Descending Salt Lake Center
01:37AM 45.9539 -110.8703 281° West 378 435 12,200 -600 Descending Salt Lake Center
01:38AM 45.9769 -111.0150 283° West 380 437 12,000 -120 Descending Salt Lake Center
01:39AM 46.0022 -111.1853 282° West 372 428 12,000 -60 Level Salt Lake Center
01:40AM 46.0128 -111.2961 278° West 301 346 11,900 -1,140 Descending Salt Lake Center
01:41AM 45.9800 -111.3811 241° Southwest 262 302 9,700 -1,980 Descending Salt Lake Center
01:42AM 45.9264 -111.3656 169° South 236 272 7,900 -1,380 Descending Salt Lake Center
01:43AM 45.8875 -111.3056 133° Southeast 219 252 6,900 -900 Descending Salt Lake Center
01:44AM 45.8542 -111.2592 136° Southeast 192 221 6,100 -780 Descending Salt Lake Center
01:45AM 45.8225 -111.2150 136° Southeast 170 196 5,400 -720 Descending Salt Lake Center
01:46AM 45.7939 -111.1756 136° Southeast 157 181 4,700 -720 Descending Salt Lake Center